Time;durP1;ratioP1;P1;durP2;ratioP2;P2;SDS_P1;SDS_P2;PMS_P1;PMS_P2;Temp;Humidity;BMP_temperature;BMP_pressure;BME280_temperature;BME280_humidity;BME280_pressure;Samples;Min_cycle;Max_cycle;Signal;HPM_P1;HPM_P2
2023/05/15 00:00:09;;;;;;;6.68;3.05;;;;;;;;;;7372636;19;20571;-66
2023/05/15 00:02:36;;;;;;;4.60;2.85;;;;;;;;;;7370444;19;20093;-66
2023/05/15 00:05:03;;;;;;;4.45;2.65;;;;;;;;;;7371725;19;20010;-67
2023/05/15 00:07:28;;;;;;;4.10;2.80;;;;;;;;;;7390981;19;20006;-67
2023/05/15 00:09:54;;;;;;;4.22;2.83;;;;;;;;;;7371604;19;20003;-67
2023/05/15 00:12:19;;;;;;;3.95;2.53;;;;;;;;;;7371786;19;20014;-67
2023/05/15 00:14:45;;;;;;;4.40;2.75;;;;;;;;;;7372097;19;20210;-67
2023/05/15 00:17:11;;;;;;;6.95;2.95;;;;;;;;;;7368263;19;20002;-66
2023/05/15 00:19:37;;;;;;;4.78;2.85;;;;;;;;;;7392273;19;20002;-67
2023/05/15 00:22:02;;;;;;;4.80;2.70;;;;;;;;;;7370163;19;20007;-66
2023/05/15 00:24:27;;;;;;;4.53;2.85;;;;;;;;;;7371548;19;20030;-67
2023/05/15 00:26:52;;;;;;;4.68;2.50;;;;;;;;;;7369759;19;20002;-67
2023/05/15 00:29:18;;;;;;;4.22;2.60;;;;;;;;;;7370044;19;20036;-67
2023/05/15 00:31:43;;;;;;;4.30;2.53;;;;;;;;;;7392178;19;20027;-67
2023/05/15 00:34:08;;;;;;;4.78;3.00;;;;;;;;;;7369809;19;20002;-66
2023/05/15 00:36:34;;;;;;;5.95;3.08;;;;;;;;;;7369037;19;20023;-65
2023/05/15 00:38:59;;;;;;;4.40;2.85;;;;;;;;;;7368278;19;20002;-66
2023/05/15 00:41:27;;;;;;;5.13;2.72;;;;;;;;;;7370148;19;20010;-66
2023/05/15 00:43:54;;;;;;;5.40;2.95;;;;;;;;;;7391765;19;19998;-66
2023/05/15 00:46:20;;;;;;;7.45;3.17;;;;;;;;;;7368963;19;20009;-65
2023/05/15 00:48:48;;;;;;;4.72;2.95;;;;;;;;;;7369102;19;20607;-65
2023/05/15 00:51:14;;;;;;;5.07;3.08;;;;;;;;;;7368757;19;20554;-67
2023/05/15 00:53:41;;;;;;;4.82;2.85;;;;;;;;;;7370410;19;20081;-64
2023/05/15 00:56:08;;;;;;;7.07;2.70;;;;;;;;;;7369210;19;20415;-67
2023/05/15 00:58:35;;;;;;;6.07;2.80;;;;;;;;;;7387932;19;20002;-65
2023/05/15 01:01:01;;;;;;;6.85;2.58;;;;;;;;;;7369170;19;20018;-66
2023/05/15 01:03:27;;;;;;;5.50;2.95;;;;;;;;;;7370051;19;20090;-67
2023/05/15 01:05:53;;;;;;;5.70;2.80;;;;;;;;;;7369339;19;20397;-66
2023/05/15 01:08:37;;;;;;;5.35;2.65;;;;;;;;;;7366522;19;20036;-65
2023/05/15 01:11:06;;;;;;;5.47;2.80;;;;;;;;;;7370293;19;20075;-67
2023/05/15 01:13:31;;;;;;;6.00;2.83;;;;;;;;;;7391557;19;20014;-67
2023/05/15 01:15:58;;;;;;;5.05;2.90;;;;;;;;;;7373068;19;20102;-66
2023/05/15 01:18:24;;;;;;;6.88;3.00;;;;;;;;;;7373870;19;20014;-66
2023/05/15 01:21:06;;;;;;;4.07;2.70;;;;;;;;;;7385653;19;20018;-67
2023/05/15 01:23:43;;;;;;;4.78;2.65;;;;;;;;;;7371374;19;20046;-67
2023/05/15 01:26:14;;;;;;;4.57;2.92;;;;;;;;;;7369390;19;20019;-67
2023/05/15 01:28:44;;;;;;;;;;;;;;;;;;7392137;19;20031;-66
2023/05/15 01:31:18;;;;;;;5.90;2.80;;;;;;;;;;7368610;19;19918;-66
2023/05/15 01:33:46;;;;;;;4.35;2.72;;;;;;;;;;7368732;19;20042;-65
2023/05/15 01:36:23;;;;;;;6.45;2.95;;;;;;;;;;7367657;19;20533;-65
2023/05/15 01:38:55;;;;;;;6.90;2.63;;;;;;;;;;7367155;19;20539;-66
2023/05/15 01:41:30;;;;;;;7.43;2.97;;;;;;;;;;7369327;19;20497;-65
2023/05/15 01:44:01;;;;;;;6.35;3.05;;;;;;;;;;7390806;19;20007;-65
2023/05/15 01:46:29;;;;;;;5.43;2.80;;;;;;;;;;7368859;19;20007;-65
2023/05/15 01:48:57;;;;;;;5.15;3.00;;;;;;;;;;7367902;19;20577;-65
2023/05/15 01:51:24;;;;;;;4.97;2.75;;;;;;;;;;7368716;19;20011;-65
2023/05/15 01:53:51;;;;;;;4.68;2.80;;;;;;;;;;7368195;19;20006;-64
2023/05/15 01:56:18;;;;;;;6.50;2.83;;;;;;;;;;7367790;19;20014;-66
2023/05/15 01:58:45;;;;;;;6.78;3.20;;;;;;;;;;7388676;19;20086;-65
2023/05/15 02:01:12;;;;;;;5.93;3.40;;;;;;;;;;7368060;19;20054;-65
2023/05/15 02:03:39;;;;;;;4.72;3.08;;;;;;;;;;7367950;19;20002;-65
2023/05/15 02:06:06;;;;;;;5.38;3.40;;;;;;;;;;7370329;19;20034;-65
2023/05/15 02:08:33;;;;;;;5.72;3.60;;;;;;;;;;7369453;19;20038;-64
2023/05/15 02:11:01;;;;;;;4.68;3.13;;;;;;;;;;7398187;19;20452;-65
2023/05/15 02:13:27;;;;;;;4.90;3.20;;;;;;;;;;7375932;19;20019;-65
2023/05/15 02:15:52;;;;;;;4.88;2.95;;;;;;;;;;7374538;19;20369;-65
2023/05/15 02:18:18;;;;;;;5.68;3.42;;;;;;;;;;7373172;19;20232;-66
2023/05/15 02:20:43;;;;;;;6.40;4.03;;;;;;;;;;7376747;19;20048;-65
2023/05/15 02:23:09;;;;;;;5.95;3.42;;;;;;;;;;7395092;19;20007;-66
2023/05/15 02:26:00;;;;;;;6.00;3.63;;;;;;;;;;7419593;19;20002;-66
2023/05/15 02:28:46;;;;;;;5.95;3.85;;;;;;;;;;7385938;19;20011;-66
2023/05/15 02:31:49;;;;;;;6.13;3.58;;;;;;;;;;7374496;19;20011;-66
2023/05/15 02:34:14;;;;;;;5.15;3.65;;;;;;;;;;7373654;19;20011;-66
2023/05/15 02:36:43;;;;;;;11.53;4.17;;;;;;;;;;7373582;19;20488;-66
2023/05/15 02:39:10;;;;;;;6.10;3.58;;;;;;;;;;7371797;19;20243;-66
2023/05/15 02:41:36;;;;;;;5.70;3.60;;;;;;;;;;7374107;19;20418;-66
2023/05/15 02:44:02;;;;;;;5.93;3.80;;;;;;;;;;7374066;19;19999;-66
2023/05/15 02:46:29;;;;;;;6.60;3.65;;;;;;;;;;7395200;19;20501;-65
2023/05/15 02:48:54;;;;;;;5.82;3.45;;;;;;;;;;7373237;19;20373;-66
2023/05/15 02:51:20;;;;;;;6.18;3.70;;;;;;;;;;7373319;19;20018;-66
2023/05/15 02:53:45;;;;;;;5.55;3.60;;;;;;;;;;7373083;19;20015;-66
2023/05/15 02:56:11;;;;;;;6.40;3.33;;;;;;;;;;7373836;19;20011;-65
2023/05/15 02:58:37;;;;;;;6.32;3.90;;;;;;;;;;7394555;19;20014;-65
2023/05/15 03:01:03;;;;;;;6.07;3.58;;;;;;;;;;7373258;19;20085;-66
2023/05/15 03:03:28;;;;;;;5.35;3.30;;;;;;;;;;7373498;19;20417;-66
2023/05/15 03:05:54;;;;;;;6.00;3.53;;;;;;;;;;7373889;19;20033;-66
2023/05/15 03:08:20;;;;;;;7.03;3.60;;;;;;;;;;7369180;19;19995;-66
2023/05/15 03:10:46;;;;;;;5.72;3.60;;;;;;;;;;7396046;19;20017;-66
2023/05/15 03:13:11;;;;;;;9.20;3.80;;;;;;;;;;7374267;19;20010;-65
2023/05/15 03:15:36;;;;;;;7.07;3.72;;;;;;;;;;7375272;19;20036;-66
2023/05/15 03:18:02;;;;;;;5.63;3.53;;;;;;;;;;7372404;19;20500;-66
2023/05/15 03:20:27;;;;;;;5.47;3.40;;;;;;;;;;7373159;19;20477;-65
2023/05/15 03:22:52;;;;;;;5.60;3.75;;;;;;;;;;7395444;19;20101;-65
2023/05/15 03:25:18;;;;;;;6.07;3.67;;;;;;;;;;7373880;19;20650;-66
2023/05/15 03:27:43;;;;;;;9.27;3.67;;;;;;;;;;7370353;19;20010;-66
2023/05/15 03:30:09;;;;;;;7.18;3.90;;;;;;;;;;7368602;19;20002;-66
2023/05/15 03:32:34;;;;;;;7.40;3.50;;;;;;;;;;7373533;19;20042;-66
2023/05/15 03:35:00;;;;;;;5.15;3.40;;;;;;;;;;7383165;19;20414;-67
2023/05/15 03:37:25;;;;;;;7.65;4.25;;;;;;;;;;7386790;19;20013;-66
2023/05/15 03:39:50;;;;;;;7.93;3.80;;;;;;;;;;7372801;19;20007;-67
2023/05/15 03:42:22;;;;;;;5.60;3.75;;;;;;;;;;7372519;19;20406;-66
2023/05/15 03:44:47;;;;;;;7.53;4.30;;;;;;;;;;7371865;19;20028;-67
2023/05/15 03:47:12;;;;;;;5.40;3.47;;;;;;;;;;7368127;19;20009;-66
2023/05/15 03:49:38;;;;;;;6.15;3.63;;;;;;;;;;7395282;19;20011;-65
2023/05/15 03:52:03;;;;;;;5.10;3.55;;;;;;;;;;7372810;19;20011;-65
2023/05/15 03:54:29;;;;;;;6.55;3.50;;;;;;;;;;7373675;19;20010;-65
2023/05/15 03:56:54;;;;;;;5.72;3.42;;;;;;;;;;7375903;19;20006;-65
2023/05/15 03:59:19;;;;;;;6.03;3.83;;;;;;;;;;7376157;19;19996;-66
2023/05/15 04:01:45;;;;;;;8.13;3.60;;;;;;;;;;7395715;19;20027;-65
2023/05/15 04:04:10;;;;;;;6.90;3.42;;;;;;;;;;7371679;19;20010;-66
2023/05/15 04:06:36;;;;;;;6.38;3.92;;;;;;;;;;7371773;19;20013;-65
2023/05/15 04:09:01;;;;;;;5.03;3.42;;;;;;;;;;7371665;19;20017;-65
2023/05/15 04:11:27;;;;;;;5.95;3.50;;;;;;;;;;7368343;19;20346;-66
2023/05/15 04:13:52;;;;;;;5.43;3.47;;;;;;;;;;7391672;19;20675;-65
2023/05/15 04:16:18;;;;;;;7.03;3.60;;;;;;;;;;7369522;19;20070;-66
2023/05/15 04:18:43;;;;;;;5.47;3.22;;;;;;;;;;7367681;19;20077;-65
2023/05/15 04:21:08;;;;;;;5.95;3.33;;;;;;;;;;7367583;19;20010;-65
2023/05/15 04:23:34;;;;;;;5.43;3.10;;;;;;;;;;7369838;19;20003;-67
2023/05/15 04:26:00;;;;;;;5.78;3.10;;;;;;;;;;7386011;19;20024;-67
2023/05/15 04:28:26;;;;;;;5.90;3.45;;;;;;;;;;7386961;19;20027;-66
2023/05/15 04:30:51;;;;;;;5.55;2.95;;;;;;;;;;7370277;19;20014;-66
2023/05/15 04:33:17;;;;;;;5.90;3.35;;;;;;;;;;7368865;19;20637;-69
2023/05/15 04:35:42;;;;;;;6.43;3.20;;;;;;;;;;7371119;19;20294;-68
2023/05/15 04:38:07;;;;;;;6.70;3.13;;;;;;;;;;7368235;19;20476;-69
2023/05/15 04:40:33;;;;;;;5.30;3.20;;;;;;;;;;7391734;19;19998;-69
2023/05/15 04:42:58;;;;;;;5.10;3.00;;;;;;;;;;7368610;19;20002;-68
2023/05/15 04:45:23;;;;;;;8.10;3.75;;;;;;;;;;7370697;19;20066;-69
2023/05/15 04:47:49;;;;;;;5.93;3.50;;;;;;;;;;7368558;19;19998;-69
2023/05/15 04:50:14;;;;;;;5.68;3.22;;;;;;;;;;7371087;19;20680;-69
2023/05/15 04:52:41;;;;;;;4.65;3.05;;;;;;;;;;7391771;19;20034;-69
2023/05/15 04:55:08;;;;;;;6.28;3.10;;;;;;;;;;7370627;19;20090;-71
2023/05/15 04:57:33;;;;;;;13.63;3.30;;;;;;;;;;7366595;19;20030;-71
2023/05/15 04:59:58;;;;;;;4.90;2.92;;;;;;;;;;7370381;19;20070;-71
2023/05/15 05:02:24;;;;;;;7.45;3.53;;;;;;;;;;7370444;19;20070;-74
2023/05/15 05:04:50;;;;;;;5.30;3.13;;;;;;;;;;7389353;19;20247;-74
2023/05/15 05:07:15;;;;;;;4.57;3.08;;;;;;;;;;7365821;19;20017;-74
2023/05/15 05:09:41;;;;;;;6.60;3.65;;;;;;;;;;7368001;19;20013;-74
2023/05/15 05:12:07;;;;;;;5.85;3.28;;;;;;;;;;7370161;19;20027;-74
2023/05/15 05:14:32;;;;;;;6.10;3.40;;;;;;;;;;7367376;19;20010;-73
2023/05/15 05:16:58;;;;;;;4.97;3.20;;;;;;;;;;7382307;19;20018;-74
2023/05/15 05:19:23;;;;;;;5.50;3.58;;;;;;;;;;7366860;19;20484;-74
2023/05/15 05:21:48;;;;;;;6.93;3.50;;;;;;;;;;7368449;19;20089;-74
2023/05/15 05:24:14;;;;;;;7.13;3.10;;;;;;;;;;7366720;19;20052;-74
2023/05/15 05:26:43;;;;;;;7.22;3.65;;;;;;;;;;7367235;19;20021;-74
2023/05/15 05:29:08;;;;;;;7.22;3.35;;;;;;;;;;7367375;19;20017;-74
2023/05/15 05:31:34;;;;;;;7.80;3.42;;;;;;;;;;7391825;19;19998;-74
2023/05/15 05:33:59;;;;;;;6.68;3.88;;;;;;;;;;7369250;19;20473;-74
2023/05/15 05:36:25;;;;;;;6.28;3.55;;;;;;;;;;7369026;19;20027;-74
2023/05/15 05:38:50;;;;;;;5.57;3.75;;;;;;;;;;7367467;19;20517;-74
2023/05/15 05:41:16;;;;;;;7.03;3.95;;;;;;;;;;7368954;19;20006;-74
2023/05/15 05:43:41;;;;;;;7.75;3.60;;;;;;;;;;7390642;19;20003;-74
2023/05/15 05:46:06;;;;;;;7.07;3.85;;;;;;;;;;7374280;19;20078;-74
2023/05/15 05:48:31;;;;;;;5.78;3.67;;;;;;;;;;7375118;19;20082;-74
2023/05/15 05:50:57;;;;;;;7.32;3.83;;;;;;;;;;7376655;19;20086;-74
2023/05/15 05:53:22;;;;;;;7.60;3.53;;;;;;;;;;7376741;19;20010;-74
2023/05/15 05:55:47;;;;;;;8.13;3.67;;;;;;;;;;7399237;19;20039;-74
2023/05/15 05:58:14;;;;;;;7.35;3.33;;;;;;;;;;7371866;19;20011;-74
2023/05/15 06:00:39;;;;;;;6.22;3.72;;;;;;;;;;7375432;19;20018;-74
2023/05/15 06:03:04;;;;;;;11.30;3.80;;;;;;;;;;7376357;19;20377;-74
2023/05/15 06:05:30;;;;;;;6.43;3.45;;;;;;;;;;7375997;19;20496;-76
2023/05/15 06:07:56;;;;;;;5.70;3.15;;;;;;;;;;7394886;19;20003;-73
2023/05/15 06:10:22;;;;;;;8.25;3.58;;;;;;;;;;7375459;19;20039;-74
2023/05/15 06:12:47;;;;;;;5.78;3.55;;;;;;;;;;7373810;19;20010;-74
2023/05/15 06:15:13;;;;;;;7.05;4.30;;;;;;;;;;7375248;19;20007;-74
2023/05/15 06:17:38;;;;;;;8.25;3.92;;;;;;;;;;7369140;19;20023;-74
2023/05/15 06:20:08;;;;;;;5.93;3.60;;;;;;;;;;7373265;19;20003;-74
2023/05/15 06:22:35;;;;;;;6.25;3.85;;;;;;;;;;7396271;19;20014;-74
2023/05/15 06:25:03;;;;;;;7.60;4.07;;;;;;;;;;7374104;19;20546;-74
2023/05/15 06:27:29;;;;;;;6.95;4.20;;;;;;;;;;7372373;19;20009;-74
2023/05/15 06:29:54;;;;;;;6.93;4.20;;;;;;;;;;7373743;19;20014;-74
2023/05/15 06:32:20;;;;;;;11.20;4.68;;;;;;;;;;7374116;19;20028;-74
2023/05/15 06:34:45;;;;;;;11.25;4.97;;;;;;;;;;7397510;19;20081;-75
2023/05/15 06:37:11;;;;;;;6.93;4.38;;;;;;;;;;7374137;19;20368;-74
2023/05/15 06:39:36;;;;;;;8.55;4.63;;;;;;;;;;7379693;19;20013;-74
2023/05/15 06:42:02;;;;;;;10.20;5.22;;;;;;;;;;7392050;19;20002;-74
2023/05/15 06:44:28;;;;;;;7.90;4.75;;;;;;;;;;7386731;19;20010;-74
2023/05/15 06:46:54;;;;;;;9.45;5.95;;;;;;;;;;7398073;19;20001;-74
2023/05/15 06:49:19;;;;;;;13.30;6.20;;;;;;;;;;7371736;19;20089;-75
2023/05/15 06:51:44;;;;;;;8.75;5.72;;;;;;;;;;7373316;19;20475;-74
2023/05/15 06:54:10;;;;;;;14.57;5.53;;;;;;;;;;7373308;19;20007;-75
2023/05/15 06:56:35;;;;;;;11.35;5.00;;;;;;;;;;7369625;19;20006;-75
2023/05/15 06:59:00;;;;;;;7.13;4.70;;;;;;;;;;7375475;19;19998;-75
2023/05/15 07:01:26;;;;;;;9.45;5.25;;;;;;;;;;7394422;19;19986;-75
2023/05/15 07:03:51;;;;;;;10.80;5.80;;;;;;;;;;7372529;19;20030;-75
2023/05/15 07:06:16;;;;;;;12.05;5.90;;;;;;;;;;7371970;19;20002;-75
2023/05/15 07:08:41;;;;;;;12.60;6.05;;;;;;;;;;7373903;19;20010;-74
2023/05/15 07:11:07;;;;;;;12.63;7.05;;;;;;;;;;7373365;19;20013;-74
2023/05/15 07:13:32;;;;;;;12.65;7.25;;;;;;;;;;7395193;19;20105;-74
2023/05/15 07:15:57;;;;;;;13.15;7.63;;;;;;;;;;7372395;19;20010;-73
2023/05/15 07:18:23;;;;;;;11.13;7.18;;;;;;;;;;7369803;19;20361;-73
2023/05/15 07:20:48;;;;;;;11.73;6.40;;;;;;;;;;7372740;19;20014;-73
2023/05/15 07:23:13;;;;;;;11.07;6.18;;;;;;;;;;7373431;19;20022;-73
2023/05/15 07:25:39;;;;;;;8.98;5.82;;;;;;;;;;7393965;19;20417;-73
2023/05/15 07:28:04;;;;;;;10.18;6.90;;;;;;;;;;7365818;19;20122;-73
2023/05/15 07:30:29;;;;;;;11.38;7.05;;;;;;;;;;7372300;19;20011;-73
2023/05/15 07:32:55;;;;;;;13.55;7.55;;;;;;;;;;7375668;19;20074;-72
2023/05/15 07:35:20;;;;;;;11.90;7.68;;;;;;;;;;7375605;19;20018;-73
2023/05/15 07:37:45;;;;;;;10.30;7.53;;;;;;;;;;7393157;19;20476;-73
2023/05/15 07:40:11;;;;;;;11.82;8.10;;;;;;;;;;7373707;19;20321;-73
2023/05/15 07:42:38;;;;;;;10.77;7.20;;;;;;;;;;7374398;19;20460;-74
2023/05/15 07:45:04;;;;;;;12.30;7.90;;;;;;;;;;7372795;19;20011;-73
2023/05/15 07:47:30;;;;;;;12.77;7.95;;;;;;;;;;7370494;19;20117;-74
2023/05/15 07:49:55;;;;;;;14.18;7.70;;;;;;;;;;7394876;19;20018;-73
2023/05/15 07:52:20;;;;;;;12.80;8.50;;;;;;;;;;7373003;19;20014;-73
2023/05/15 07:54:46;;;;;;;14.02;8.63;;;;;;;;;;7377123;19;20002;-73
2023/05/15 07:57:11;;;;;;;15.27;9.45;;;;;;;;;;7372026;19;20095;-73
2023/05/15 07:59:37;;;;;;;16.30;9.15;;;;;;;;;;7371007;19;20017;-76
2023/05/15 08:02:02;;;;;;;15.70;9.35;;;;;;;;;;7372362;19;20014;-76
2023/05/15 08:04:27;;;;;;;19.27;10.52;;;;;;;;;;7393560;19;20466;-77
2023/05/15 08:06:53;;;;;;;20.33;10.80;;;;;;;;;;7369074;19;20011;-76
2023/05/15 08:09:18;;;;;;;20.65;11.05;;;;;;;;;;7373009;19;20035;-77
2023/05/15 08:11:43;;;;;;;18.98;11.43;;;;;;;;;;7372766;19;20540;-77
2023/05/15 08:14:09;;;;;;;18.20;11.80;;;;;;;;;;7372938;19;20543;-77
2023/05/15 08:16:34;;;;;;;20.80;11.60;;;;;;;;;;7392806;19;20065;-77
2023/05/15 08:19:03;;;;;;;19.23;12.43;;;;;;;;;;7370023;19;20010;-77
2023/05/15 08:21:29;;;;;;;18.35;11.27;;;;;;;;;;7369001;19;20019;-77
2023/05/15 08:23:55;;;;;;;20.48;11.52;;;;;;;;;;7370786;19;20074;-77
2023/05/15 08:26:20;;;;;;;16.25;10.93;;;;;;;;;;7370152;19;20023;-76
2023/05/15 08:28:45;;;;;;;22.42;11.38;;;;;;;;;;7389734;19;20014;-76
2023/05/15 08:31:11;;;;;;;20.30;11.77;;;;;;;;;;7371192;19;20015;-77
2023/05/15 08:33:36;;;;;;;17.08;10.18;;;;;;;;;;7369317;19;20006;-77
2023/05/15 08:36:01;;;;;;;17.67;11.13;;;;;;;;;;7371130;19;20010;-77
2023/05/15 08:38:27;;;;;;;16.42;10.23;;;;;;;;;;7369461;19;20010;-77
2023/05/15 08:40:55;;;;;;;17.40;10.07;;;;;;;;;;7391369;19;19999;-76
2023/05/15 08:43:22;;;;;;;19.05;11.95;;;;;;;;;;7369293;19;20078;-76
2023/05/15 08:45:48;;;;;;;17.38;10.27;;;;;;;;;;7368794;19;20035;-76
2023/05/15 08:48:16;;;;;;;18.42;10.95;;;;;;;;;;7368114;19;20037;-77
2023/05/15 08:50:43;;;;;;;17.33;10.70;;;;;;;;;;7369184;19;20002;-77
2023/05/15 08:53:10;;;;;;;15.63;10.27;;;;;;;;;;7369408;19;20002;-77
2023/05/15 08:55:36;;;;;;;17.10;11.77;;;;;;;;;;7391664;19;20073;-76
2023/05/15 08:58:02;;;;;;;18.17;11.50;;;;;;;;;;7366459;19;20191;-76
2023/05/15 09:00:28;;;;;;;15.35;9.32;;;;;;;;;;7368797;19;20085;-77
2023/05/15 09:02:54;;;;;;;21.70;11.32;;;;;;;;;;7370642;19;20377;-76
2023/05/15 09:05:19;;;;;;;14.00;9.85;;;;;;;;;;7371924;19;20020;-77
2023/05/15 09:07:46;;;;;;;19.02;10.30;;;;;;;;;;7388821;19;20002;-77
2023/05/15 09:10:12;;;;;;;14.18;9.15;;;;;;;;;;7369376;19;20006;-77
2023/05/15 09:12:42;;;;;;;13.95;9.75;;;;;;;;;;7370709;19;20016;-77
2023/05/15 09:15:20;;;;;;;15.90;10.27;;;;;;;;;;7372554;19;20050;-77
2023/05/15 09:17:47;;;;;;;15.88;10.10;;;;;;;;;;7368448;19;20598;-76
2023/05/15 09:20:32;;;;;;;17.10;10.02;;;;;;;;;;7369108;19;20016;-76
2023/05/15 09:22:59;;;;;;;16.60;10.13;;;;;;;;;;7390390;19;20002;-76
2023/05/15 09:25:39;;;;;;;16.77;10.57;;;;;;;;;;7369472;19;20023;-76
2023/05/15 09:28:09;;;;;;;15.02;9.68;;;;;;;;;;7365564;19;20010;-76
2023/05/15 09:30:40;;;;;;;14.43;8.93;;;;;;;;;;7368881;19;20013;-77
2023/05/15 09:33:06;;;;;;;19.00;9.85;;;;;;;;;;7368259;19;20039;-77
2023/05/15 09:35:31;;;;;;;16.08;9.07;;;;;;;;;;7368824;19;20049;-76
2023/05/15 09:38:01;;;;;;;16.27;10.05;;;;;;;;;;7389638;19;20019;-76
2023/05/15 09:40:31;;;;;;;17.50;9.88;;;;;;;;;;7373765;19;20007;-76
2023/05/15 09:42:56;;;;;;;16.50;10.48;;;;;;;;;;7374352;19;20018;-76
2023/05/15 09:45:25;;;;;;;19.23;11.13;;;;;;;;;;7370039;19;20042;-77
2023/05/15 09:47:51;;;;;;;18.35;11.02;;;;;;;;;;7365635;19;20011;-76
2023/05/15 09:50:33;;;;;;;16.50;10.15;;;;;;;;;;7368191;19;20014;-76
2023/05/15 09:52:59;;;;;;;16.95;11.25;;;;;;;;;;7389833;19;20441;-76
2023/05/15 09:55:24;;;;;;;17.77;10.65;;;;;;;;;;7368216;19;20002;-76
2023/05/15 09:58:10;;;;;;;16.08;10.18;;;;;;;;;;7364793;19;20105;-76
2023/05/15 10:00:37;;;;;;;14.35;9.50;;;;;;;;;;7367566;19;20040;-76
2023/05/15 10:03:05;;;;;;;19.50;11.15;;;;;;;;;;7367438;19;20006;-76
2023/05/15 10:05:30;;;;;;;18.05;11.25;;;;;;;;;;7367294;19;20093;-76
2023/05/15 10:07:56;;;;;;;20.65;11.35;;;;;;;;;;7385641;19;20437;-76
2023/05/15 10:10:23;;;;;;;16.23;10.40;;;;;;;;;;7367122;19;20010;-76
2023/05/15 10:12:50;;;;;;;19.02;11.30;;;;;;;;;;7365644;19;20077;-76
2023/05/15 10:15:20;;;;;;;18.77;10.35;;;;;;;;;;7365135;19;20388;-76
2023/05/15 10:17:50;;;;;;;18.60;11.07;;;;;;;;;;7363415;19;20397;-76
2023/05/15 10:20:18;;;;;;;16.08;10.15;;;;;;;;;;7364786;19;20493;-76
2023/05/15 10:22:49;;;;;;;17.98;10.43;;;;;;;;;;7384992;19;20014;-76
2023/05/15 10:25:33;;;;;;;20.42;11.05;;;;;;;;;;7364681;19;20017;-76
2023/05/15 10:27:58;;;;;;;20.48;11.70;;;;;;;;;;7362645;19;20854;-76
2023/05/15 10:30:25;;;;;;;18.75;10.27;;;;;;;;;;7369304;19;20040;-76
2023/05/15 10:32:51;;;;;;;18.42;10.50;;;;;;;;;;7374420;19;20010;-76
2023/05/15 10:35:17;;;;;;;21.40;10.13;;;;;;;;;;7374991;19;20097;-76
2023/05/15 10:37:45;;;;;;;16.75;9.82;;;;;;;;;;7393394;19;20036;-76
2023/05/15 10:40:13;;;;;;;17.42;9.98;;;;;;;;;;7372891;19;20107;-76
2023/05/15 10:42:41;;;;;;;15.63;9.13;;;;;;;;;;7373131;19;20017;-75
2023/05/15 10:45:08;;;;;;;17.60;8.73;;;;;;;;;;7373921;19;20080;-75
2023/05/15 10:47:34;;;;;;;16.10;9.90;;;;;;;;;;7380268;19;20026;-76
2023/05/15 10:50:00;;;;;;;15.93;9.10;;;;;;;;;;7390660;19;20002;-75
2023/05/15 10:52:26;;;;;;;15.35;8.50;;;;;;;;;;7395857;19;20003;-76
2023/05/15 10:54:55;;;;;;;12.55;8.20;;;;;;;;;;7375532;19;20400;-77
2023/05/15 10:57:21;;;;;;;16.47;7.93;;;;;;;;;;7373993;19;20031;-76
2023/05/15 10:59:46;;;;;;;14.23;8.45;;;;;;;;;;7375746;19;20285;-76
2023/05/15 11:02:24;;;;;;;16.42;9.10;;;;;;;;;;7379289;19;20063;-78
2023/05/15 11:04:57;;;;;;;13.70;9.43;;;;;;;;;;7412684;19;20013;-75
2023/05/15 11:07:23;;;;;;;16.55;9.15;;;;;;;;;;7395368;19;19999;-78
2023/05/15 11:09:49;;;;;;;13.05;8.63;;;;;;;;;;7397908;19;20525;-78
2023/05/15 11:12:14;;;;;;;14.18;9.10;;;;;;;;;;7382642;19;20015;-78
2023/05/15 11:14:43;;;;;;;16.90;9.65;;;;;;;;;;7380953;19;20433;-78
2023/05/15 11:17:10;;;;;;;15.32;10.48;;;;;;;;;;7379351;19;20017;-78
2023/05/15 11:19:53;;;;;;;15.02;10.25;;;;;;;;;;7400885;19;20376;-77
2023/05/15 11:22:20;;;;;;;20.50;10.50;;;;;;;;;;7379077;19;20015;-77
2023/05/15 11:25:04;;;;;;;17.52;10.45;;;;;;;;;;7377153;19;20003;-78
2023/05/15 11:27:44;;;;;;;18.63;9.32;;;;;;;;;;7375797;19;20011;-78
2023/05/15 11:30:09;;;;;;;13.00;8.33;;;;;;;;;;7378877;19;20104;-78
2023/05/15 11:32:46;;;;;;;13.18;8.50;;;;;;;;;;7378897;19;20026;-78
2023/05/15 11:35:33;;;;;;;10.27;6.55;;;;;;;;;;7378165;19;20041;-77
2023/05/15 11:38:08;;;;;;;13.98;6.50;;;;;;;;;;7396873;19;20002;-79
2023/05/15 11:40:42;;;;;;;11.23;6.68;;;;;;;;;;7378053;19;20687;-78
2023/05/15 11:43:20;;;;;;;12.55;6.80;;;;;;;;;;7382664;19;20014;-77
2023/05/15 11:45:47;;;;;;;10.65;6.53;;;;;;;;;;7378196;19;20030;-77
2023/05/15 11:48:15;;;;;;;9.55;6.50;;;;;;;;;;7376376;19;20030;-77
2023/05/15 11:50:41;;;;;;;9.23;6.30;;;;;;;;;;7379229;19;20010;-77
2023/05/15 11:53:08;;;;;;;8.77;5.55;;;;;;;;;;7377598;19;20005;-79
2023/05/15 11:55:36;;;;;;;10.05;5.60;;;;;;;;;;7399812;19;20382;-77
2023/05/15 11:58:03;;;;;;;10.02;5.72;;;;;;;;;;7371743;19;20006;-78
2023/05/15 12:00:28;;;;;;;8.60;4.85;;;;;;;;;;7373034;19;20435;-77
2023/05/15 12:02:54;;;;;;;8.43;5.40;;;;;;;;;;7373418;19;20014;-77
2023/05/15 12:05:21;;;;;;;9.05;5.22;;;;;;;;;;7372833;19;20485;-77
2023/05/15 12:07:46;;;;;;;8.02;4.78;;;;;;;;;;7391779;19;20014;-77
2023/05/15 12:10:12;;;;;;;214.73;21.83;;;;;;;;;;7373742;19;20499;-78
2023/05/15 12:12:45;;;;;;;8.65;5.70;;;;;;;;;;7374550;19;20007;-78
2023/05/15 12:15:16;;;;;;;9.73;5.00;;;;;;;;;;7374650;19;20027;-78
2023/05/15 12:17:44;;;;;;;6.88;4.45;;;;;;;;;;7371723;19;20702;-76
2023/05/15 12:20:10;;;;;;;8.95;4.43;;;;;;;;;;7372231;19;20027;-77
2023/05/15 12:22:37;;;;;;;7.38;4.75;;;;;;;;;;7397800;19;20009;-77
2023/05/15 12:25:05;;;;;;;9.40;4.93;;;;;;;;;;7372061;19;20035;-77
2023/05/15 12:27:31;;;;;;;9.77;4.20;;;;;;;;;;7369823;19;20494;-77
2023/05/15 12:29:56;;;;;;;6.97;3.83;;;;;;;;;;7373937;19;20014;-77
2023/05/15 12:32:22;;;;;;;6.72;4.47;;;;;;;;;;7372437;19;20407;-77
2023/05/15 12:34:48;;;;;;;7.65;4.88;;;;;;;;;;7391141;19;20019;-72
2023/05/15 12:37:13;;;;;;;8.48;4.90;;;;;;;;;;7366850;19;20016;-71
2023/05/15 12:40:00;;;;;;;7.13;4.85;;;;;;;;;;7367238;19;20512;-72
2023/05/15 12:42:28;;;;;;;7.30;4.53;;;;;;;;;;7369809;19;20030;-72
2023/05/15 12:44:55;;;;;;;6.78;5.20;;;;;;;;;;7369807;19;20006;-73
2023/05/15 12:47:27;;;;;;;8.38;5.53;;;;;;;;;;7368869;19;20372;-72
2023/05/15 12:49:56;;;;;;;9.73;5.22;;;;;;;;;;7391491;19;20083;-75
2023/05/15 12:52:22;;;;;;;7.80;5.22;;;;;;;;;;7370863;19;20018;-68
2023/05/15 12:54:47;;;;;;;8.52;5.45;;;;;;;;;;7368304;19;20027;-67
2023/05/15 12:57:13;;;;;;;7.80;5.07;;;;;;;;;;7366573;19;20014;-68
2023/05/15 12:59:39;;;;;;;9.88;5.82;;;;;;;;;;7368773;19;20595;-67
2023/05/15 13:02:13;;;;;;;12.63;6.57;;;;;;;;;;7365941;19;20010;-66
2023/05/15 13:04:39;;;;;;;8.85;6.03;;;;;;;;;;7391868;19;20040;-66
2023/05/15 13:07:05;;;;;;;10.00;5.30;;;;;;;;;;7366448;19;20022;-66
2023/05/15 13:09:32;;;;;;;10.13;5.13;;;;;;;;;;7368783;19;20549;-70
2023/05/15 13:12:00;;;;;;;8.48;5.80;;;;;;;;;;7369680;19;20023;-66
2023/05/15 13:14:28;;;;;;;11.10;6.45;;;;;;;;;;7358193;19;20014;-66
2023/05/15 13:16:59;;;;;;;8.30;4.90;;;;;;;;;;7378141;19;20009;-67
2023/05/15 13:19:24;;;;;;;10.02;6.18;;;;;;;;;;7365021;19;20016;-66
2023/05/15 13:21:50;;;;;;;11.82;6.53;;;;;;;;;;7369253;19;20014;-65
2023/05/15 13:24:15;;;;;;;9.82;6.35;;;;;;;;;;7367610;19;20033;-69
2023/05/15 13:26:40;;;;;;;12.20;6.32;;;;;;;;;;7366646;19;20472;-72
2023/05/15 13:29:05;;;;;;;28.50;7.53;;;;;;;;;;7366639;19;20003;-70
2023/05/15 13:31:31;;;;;;;14.63;6.78;;;;;;;;;;7391090;19;20049;-72
2023/05/15 13:33:56;;;;;;;9.80;6.47;;;;;;;;;;7370072;19;20070;-68
2023/05/15 13:36:21;;;;;;;11.80;6.30;;;;;;;;;;7369436;19;20018;-68
2023/05/15 13:38:47;;;;;;;10.00;5.88;;;;;;;;;;7367784;19;20377;-67
2023/05/15 13:41:12;;;;;;;9.60;5.90;;;;;;;;;;7368617;19;20014;-66
2023/05/15 13:43:37;;;;;;;10.55;5.55;;;;;;;;;;7389518;19;20002;-67
2023/05/15 13:46:03;;;;;;;11.27;6.55;;;;;;;;;;7367452;19;20028;-67
2023/05/15 13:48:28;;;;;;;8.60;5.70;;;;;;;;;;7366518;19;20010;-70
2023/05/15 13:50:54;;;;;;;10.18;5.88;;;;;;;;;;7362871;19;20025;-63
2023/05/15 13:53:20;;;;;;;8.32;4.82;;;;;;;;;;7368181;19;20008;-65
2023/05/15 13:55:45;;;;;;;11.13;5.65;;;;;;;;;;7391725;19;20015;-63
2023/05/15 13:58:11;;;;;;;8.07;4.78;;;;;;;;;;7368776;19;20015;-63
2023/05/15 14:00:38;;;;;;;11.82;4.82;;;;;;;;;;7372594;19;20476;-66
2023/05/15 14:03:04;;;;;;;7.40;4.45;;;;;;;;;;7368996;19;20078;-67
2023/05/15 14:05:29;;;;;;;9.70;4.45;;;;;;;;;;7368096;19;20398;-66
2023/05/15 14:07:55;;;;;;;7.35;4.45;;;;;;;;;;7392406;19;20030;-65
2023/05/15 14:10:22;;;;;;;9.88;4.43;;;;;;;;;;7374177;19;20082;-67
2023/05/15 14:12:48;;;;;;;7.50;3.70;;;;;;;;;;7375845;19;20015;-66
2023/05/15 14:15:13;;;;;;;10.23;4.00;;;;;;;;;;7374524;19;20416;-65
2023/05/15 14:17:38;;;;;;;8.70;4.05;;;;;;;;;;7371256;19;20010;-63
2023/05/15 14:20:05;;;;;;;9.85;4.70;;;;;;;;;;7373747;19;20039;-63
2023/05/15 14:22:30;;;;;;;5.53;3.40;;;;;;;;;;7397033;19;20005;-64
2023/05/15 14:24:56;;;;;;;7.25;4.13;;;;;;;;;;7373843;19;20018;-65
2023/05/15 14:27:21;;;;;;;11.98;4.82;;;;;;;;;;7370724;19;20489;-65
2023/05/15 14:29:47;;;;;;;11.43;5.28;;;;;;;;;;7373799;19;20028;-65
2023/05/15 14:32:13;;;;;;;7.75;4.78;;;;;;;;;;7374489;19;20002;-66
2023/05/15 14:34:38;;;;;;;4.70;3.13;;;;;;;;;;7396036;19;20186;-65